createdAt,value
2018-11-27T00:00:50.054Z,3.07
2018-11-27T00:02:50.021Z,3.06
2018-11-27T00:04:50.241Z,3.05
2018-11-27T00:06:50.477Z,3.04
2018-11-27T00:08:50.403Z,3.03
2018-11-27T00:10:50.392Z,3.02
2018-11-27T00:12:50.366Z,3.00
2018-11-27T00:14:50.296Z,2.99
2018-11-27T00:16:50.670Z,3.00
2018-11-27T00:18:49.819Z,2.98
2018-11-27T00:20:49.788Z,2.97
2018-11-27T00:22:49.823Z,2.96
2018-11-27T00:24:49.836Z,2.93
2018-11-27T00:26:50.036Z,2.91
2018-11-27T00:28:49.950Z,2.90
2018-11-27T00:30:49.976Z,2.89
2018-11-27T00:32:49.870Z,2.89
2018-11-27T00:34:50.191Z,2.87
2018-11-27T00:36:50.459Z,2.85
2018-11-27T00:38:50.451Z,2.82
2018-11-27T00:40:50.452Z,2.82
2018-11-27T00:42:50.462Z,2.82
2018-11-27T00:44:50.486Z,2.80
2018-11-27T00:46:49.730Z,2.78
2018-11-27T00:48:49.813Z,2.77
2018-11-27T00:50:49.782Z,2.75
2018-11-27T00:52:49.715Z,2.74
2018-11-27T00:54:49.722Z,2.73
2018-11-27T00:56:49.964Z,2.68
2018-11-27T00:58:49.871Z,2.67
2018-11-27T01:00:49.899Z,2.62
2018-11-27T01:02:49.933Z,2.61
2018-11-27T01:04:50.269Z,2.61
2018-11-27T01:06:50.421Z,2.60
2018-11-27T01:08:50.519Z,2.59
2018-11-27T01:10:50.542Z,2.59
2018-11-27T01:12:50.579Z,2.58
2018-11-27T01:14:50.550Z,2.55
2018-11-27T01:16:49.703Z,2.52
2018-11-27T01:18:49.676Z,2.51
2018-11-27T01:20:49.717Z,2.52
2018-11-27T01:22:49.863Z,2.52
2018-11-27T01:24:49.784Z,2.51
2018-11-27T01:26:49.998Z,2.51
2018-11-27T01:28:49.987Z,2.51
2018-11-27T01:30:49.979Z,2.51
2018-11-27T01:32:49.991Z,2.52
2018-11-27T01:34:50.284Z,2.53
2018-11-27T01:36:50.454Z,2.54
2018-11-27T01:38:50.424Z,2.55
2018-11-27T01:40:50.417Z,2.58
2018-11-27T01:42:50.493Z,2.58
2018-11-27T01:44:50.406Z,2.59
2018-11-27T01:46:50.502Z,2.59
2018-11-27T01:48:50.550Z,2.59
2018-11-27T01:50:50.506Z,2.62
2018-11-27T01:52:50.438Z,2.65
2018-11-27T01:54:50.449Z,2.65
2018-11-27T01:56:49.703Z,2.65
2018-11-27T01:58:50.663Z,2.65
2018-11-27T02:00:49.686Z,2.65
2018-11-27T02:02:49.709Z,2.65
2018-11-27T02:04:50.173Z,2.65
2018-11-27T02:06:50.319Z,2.64
2018-11-27T02:08:50.273Z,2.63
2018-11-27T02:10:50.285Z,2.63
2018-11-27T02:12:50.323Z,2.63
2018-11-27T02:14:50.397Z,2.64
2018-11-27T02:16:50.679Z,2.64
2018-11-27T02:18:49.892Z,2.64
2018-11-27T02:20:49.945Z,2.61
2018-11-27T02:22:49.999Z,2.60
2018-11-27T02:24:50.309Z,2.61
2018-11-27T02:26:50.691Z,2.62
2018-11-27T02:28:49.746Z,2.61
2018-11-27T02:30:49.946Z,2.62
2018-11-27T02:32:50.097Z,2.62
2018-11-27T02:34:50.392Z,2.61
2018-11-27T02:36:50.623Z,2.62
2018-11-27T02:38:50.674Z,2.61
2018-11-27T02:40:49.712Z,2.61
2018-11-27T02:42:49.741Z,2.61
2018-11-27T02:44:49.755Z,2.61
2018-11-27T02:46:49.923Z,2.61
2018-11-27T02:48:49.852Z,2.60
2018-11-27T02:50:49.953Z,2.60
2018-11-27T02:52:49.946Z,2.61
2018-11-27T02:54:49.887Z,2.60
2018-11-27T02:56:50.073Z,2.58
2018-11-27T02:58:50.090Z,2.56
2018-11-27T03:00:50.070Z,2.57
2018-11-27T03:02:50.195Z,2.56
2018-11-27T03:04:50.512Z,2.56
2018-11-27T03:06:49.844Z,2.55
2018-11-27T03:08:49.900Z,2.55
2018-11-27T03:10:49.949Z,2.54
2018-11-27T03:12:50.014Z,2.53
2018-11-27T03:14:50.054Z,2.52
2018-11-27T03:16:50.318Z,2.53
2018-11-27T03:18:50.308Z,2.54
2018-11-27T03:20:50.251Z,2.53
2018-11-27T03:22:50.256Z,2.53
2018-11-27T03:24:50.283Z,2.52
2018-11-27T03:26:50.386Z,2.51
2018-11-27T03:28:50.403Z,2.51
2018-11-27T03:30:50.462Z,2.50
2018-11-27T03:32:50.683Z,2.51
2018-11-27T03:34:49.977Z,2.48
2018-11-27T03:36:50.188Z,2.47
2018-11-27T03:38:50.173Z,2.47
2018-11-27T03:40:50.154Z,2.47
2018-11-27T03:42:50.168Z,2.47
2018-11-27T03:44:50.123Z,2.46
2018-11-27T03:46:50.252Z,2.46
2018-11-27T03:48:50.258Z,2.46
2018-11-27T03:50:50.287Z,2.44
2018-11-27T03:52:50.262Z,2.42
2018-11-27T03:54:50.258Z,2.44
2018-11-27T03:56:50.428Z,2.43
2018-11-27T03:58:50.508Z,2.44
2018-11-27T04:00:50.454Z,2.44
2018-11-27T04:02:50.558Z,2.45
2018-11-27T04:04:49.966Z,2.45
2018-11-27T04:06:50.190Z,2.45
2018-11-27T04:08:50.245Z,2.47
2018-11-27T04:10:50.308Z,2.47
2018-11-27T04:12:50.348Z,2.48
2018-11-27T04:14:50.288Z,2.48
2018-11-27T04:16:50.468Z,2.45
2018-11-27T04:18:50.492Z,2.42
2018-11-27T04:20:50.465Z,2.41
2018-11-27T04:22:50.440Z,2.42
2018-11-27T04:24:50.372Z,2.42
2018-11-27T04:26:50.591Z,2.40
2018-11-27T04:28:50.578Z,2.39
2018-11-27T04:30:51.480Z,2.40
2018-11-27T04:32:50.446Z,2.40
2018-11-27T04:34:49.802Z,2.40
2018-11-27T04:36:49.917Z,2.41
2018-11-27T04:38:49.910Z,2.40
2018-11-27T04:40:49.908Z,2.39
2018-11-27T04:42:49.923Z,2.38
2018-11-27T04:44:49.919Z,2.38
2018-11-27T04:46:50.092Z,2.39
2018-11-27T04:48:50.103Z,2.39
2018-11-27T04:50:50.078Z,2.37
2018-11-27T04:52:50.060Z,2.36
2018-11-27T04:54:50.075Z,2.36
2018-11-27T04:56:50.215Z,2.37
2018-11-27T04:58:50.256Z,2.38
2018-11-27T05:00:50.320Z,2.38
2018-11-27T05:02:50.389Z,2.38
2018-11-27T05:04:50.676Z,2.38
2018-11-27T05:06:49.830Z,2.39
2018-11-27T05:08:49.805Z,2.39
2018-11-27T05:10:49.823Z,2.40
2018-11-27T05:12:49.815Z,2.39
2018-11-27T05:14:49.844Z,2.39
2018-11-27T05:16:49.998Z,2.39
2018-11-27T05:18:49.973Z,2.38
2018-11-27T05:20:50.012Z,2.39
2018-11-27T05:22:49.986Z,2.38
2018-11-27T05:24:49.968Z,2.37
2018-11-27T05:26:50.482Z,2.37
2018-11-27T05:28:50.400Z,2.37
2018-11-27T05:30:50.431Z,2.38
2018-11-27T05:32:50.388Z,2.37
2018-11-27T05:34:49.706Z,2.36
2018-11-27T05:36:49.910Z,2.36
2018-11-27T05:38:49.839Z,2.34
2018-11-27T05:40:49.894Z,2.34
2018-11-27T05:42:49.948Z,2.37
2018-11-27T05:44:49.908Z,2.38
2018-11-27T05:46:50.043Z,2.37
2018-11-27T05:48:49.978Z,2.35
2018-11-27T05:50:49.968Z,2.35
2018-11-27T05:52:49.921Z,2.36
2018-11-27T05:54:49.875Z,2.38
2018-11-27T05:56:50.282Z,2.38
2018-11-27T05:58:50.342Z,2.35
2018-11-27T06:00:50.296Z,2.34
2018-11-27T06:02:50.295Z,2.33
2018-11-27T06:04:50.621Z,2.33
2018-11-27T06:06:49.856Z,2.32
2018-11-27T06:08:49.819Z,2.31
2018-11-27T06:10:49.845Z,2.32
2018-11-27T06:12:49.893Z,2.31
2018-11-27T06:14:49.841Z,2.31
2018-11-27T06:16:50.141Z,2.31
2018-11-27T06:18:50.094Z,2.32
2018-11-27T06:20:50.130Z,2.32
2018-11-27T06:22:50.193Z,2.32
2018-11-27T06:24:50.179Z,2.31
2018-11-27T06:26:50.354Z,2.30
2018-11-27T06:28:50.374Z,2.32
2018-11-27T06:30:50.337Z,2.33
2018-11-27T06:32:50.328Z,2.34
2018-11-27T06:34:50.569Z,2.33
2018-11-27T06:36:50.477Z,2.32
2018-11-27T06:38:50.501Z,2.33
2018-11-27T06:40:50.429Z,2.33
2018-11-27T06:42:50.460Z,2.32
2018-11-27T06:44:50.463Z,2.32
2018-11-27T06:46:50.547Z,2.31
2018-11-27T06:48:50.621Z,2.32
2018-11-27T06:50:50.613Z,2.33
2018-11-27T06:52:50.542Z,2.33
2018-11-27T06:54:50.547Z,2.33
2018-11-27T06:56:49.768Z,2.34
2018-11-27T06:58:49.889Z,2.34
2018-11-27T07:00:49.848Z,2.34
2018-11-27T07:02:49.832Z,2.33
2018-11-27T07:04:50.145Z,2.33
2018-11-27T07:06:50.218Z,2.32
2018-11-27T07:08:50.167Z,2.32
2018-11-27T07:10:50.208Z,2.31
2018-11-27T07:12:50.220Z,2.32
2018-11-27T07:14:50.241Z,2.34
2018-11-27T07:16:50.422Z,2.34
2018-11-27T07:18:50.420Z,2.34
2018-11-27T07:20:50.440Z,2.35
2018-11-27T07:22:50.477Z,2.36
2018-11-27T07:24:50.437Z,2.37
2018-11-27T07:26:53.247Z,2.35
2018-11-27T07:28:50.233Z,2.34
2018-11-27T07:30:50.228Z,2.37
2018-11-27T07:32:50.227Z,2.37
2018-11-27T07:34:50.547Z,2.37
2018-11-27T07:36:49.686Z,2.37
2018-11-27T07:38:50.581Z,2.37
2018-11-27T07:40:50.535Z,2.39
2018-11-27T07:42:50.578Z,2.40
2018-11-27T07:44:50.539Z,2.42
2018-11-27T07:46:49.693Z,2.42
2018-11-27T07:48:49.707Z,2.37
2018-11-27T07:50:49.701Z,2.39
2018-11-27T07:52:49.765Z,2.40
2018-11-27T07:54:49.728Z,2.41
2018-11-27T07:56:49.984Z,2.43
2018-11-27T07:58:49.935Z,2.46
2018-11-27T08:00:49.963Z,2.47
2018-11-27T08:02:49.955Z,2.48
2018-11-27T08:04:50.315Z,2.49
2018-11-27T08:06:50.570Z,2.49
2018-11-27T08:08:50.571Z,2.48
2018-11-27T08:10:50.589Z,2.47
2018-11-27T08:12:50.688Z,2.48
2018-11-27T08:14:50.640Z,2.44
2018-11-27T08:16:49.847Z,2.44
2018-11-27T08:18:49.933Z,2.44
2018-11-27T08:20:49.882Z,2.44
2018-11-27T08:22:49.937Z,2.45
2018-11-27T08:24:49.893Z,2.44
2018-11-27T08:26:50.044Z,2.45
2018-11-27T08:28:50.017Z,2.45
2018-11-27T08:30:49.986Z,2.44
2018-11-27T08:32:49.919Z,2.45
2018-11-27T08:34:50.188Z,2.47
2018-11-27T08:36:51.016Z,2.49
2018-11-27T08:38:49.995Z,2.52
2018-11-27T08:40:49.988Z,2.52
2018-11-27T08:42:49.915Z,2.52
2018-11-27T08:44:49.847Z,2.49
2018-11-27T08:46:49.910Z,2.51
2018-11-27T08:48:49.897Z,2.53
2018-11-27T08:50:49.841Z,2.54
2018-11-27T08:52:49.830Z,2.54
2018-11-27T08:54:49.914Z,2.53
2018-11-27T08:56:50.013Z,2.51
2018-11-27T08:58:49.971Z,2.50
2018-11-27T09:00:50.051Z,2.51
2018-11-27T09:02:50.059Z,2.56
2018-11-27T09:04:50.317Z,2.59
2018-11-27T09:06:50.559Z,2.62
2018-11-27T09:08:50.525Z,2.62
2018-11-27T09:10:50.527Z,2.63
2018-11-27T09:12:50.482Z,2.68
2018-11-27T09:14:50.519Z,2.67
2018-11-27T09:16:50.663Z,2.66
2018-11-27T09:18:49.672Z,2.68
2018-11-27T09:20:49.790Z,2.71
2018-11-27T09:22:49.732Z,2.70
2018-11-27T09:24:49.726Z,2.67
2018-11-27T09:26:49.927Z,2.67
2018-11-27T09:28:49.896Z,2.66
2018-11-27T09:30:49.872Z,2.70
2018-11-27T09:32:49.926Z,2.73
2018-11-27T09:34:50.178Z,2.72
2018-11-27T09:36:50.285Z,2.71
2018-11-27T09:38:50.291Z,2.72
2018-11-27T09:40:50.303Z,2.71
2018-11-27T09:42:50.264Z,2.71
2018-11-27T09:44:50.259Z,2.74
2018-11-27T09:46:50.456Z,2.74
2018-11-27T09:48:50.369Z,2.71
2018-11-27T09:50:50.287Z,2.69
2018-11-27T09:52:50.294Z,2.68
2018-11-27T09:54:50.280Z,2.70
2018-11-27T09:56:50.552Z,2.72
2018-11-27T09:58:50.476Z,2.71
2018-11-27T10:00:50.474Z,2.71
2018-11-27T10:02:50.373Z,2.72
2018-11-27T10:04:50.651Z,2.74
2018-11-27T10:06:49.884Z,2.74
2018-11-27T10:08:49.795Z,2.76
2018-11-27T10:10:49.815Z,2.76
2018-11-27T10:12:49.907Z,2.76
2018-11-27T10:14:49.865Z,2.76
2018-11-27T10:16:50.059Z,2.77
2018-11-27T10:18:50.052Z,2.77
2018-11-27T10:20:49.978Z,2.79
2018-11-27T10:22:49.947Z,2.86
2018-11-27T10:24:49.860Z,2.90
2018-11-27T10:26:50.018Z,2.93
2018-11-27T10:28:49.961Z,2.90
2018-11-27T10:30:49.929Z,2.94
2018-11-27T10:32:49.945Z,2.98
2018-11-27T10:34:50.186Z,2.99
2018-11-27T10:36:50.416Z,2.93
2018-11-27T10:38:50.415Z,2.95
2018-11-27T10:40:50.523Z,3.01
2018-11-27T10:42:50.803Z,3.07
2018-11-27T10:44:49.966Z,3.08
2018-11-27T10:46:50.197Z,3.08
2018-11-27T10:48:50.163Z,3.10
2018-11-27T10:50:50.179Z,3.12
2018-11-27T10:52:50.156Z,3.16
2018-11-27T10:54:51.122Z,3.15
2018-11-27T10:56:50.342Z,3.12
2018-11-27T10:58:50.289Z,3.08
2018-11-27T11:00:50.207Z,3.04
2018-11-27T11:02:50.200Z,3.05
2018-11-27T11:04:50.073Z,3.09
2018-11-27T11:06:50.183Z,3.04
2018-11-27T11:08:50.136Z,3.05
2018-11-27T11:10:50.059Z,3.05
2018-11-27T11:12:50.095Z,3.06
2018-11-27T11:14:50.022Z,3.10
2018-11-27T11:16:50.175Z,3.05
2018-11-27T11:18:50.165Z,3.03
2018-11-27T11:20:50.146Z,3.02
2018-11-27T11:22:50.144Z,3.03
2018-11-27T11:24:50.158Z,3.11
2018-11-27T11:26:50.296Z,3.13
2018-11-27T11:28:50.330Z,3.15
2018-11-27T11:30:50.304Z,3.14
2018-11-27T11:32:50.307Z,3.14
2018-11-27T11:34:50.483Z,3.13
2018-11-27T11:36:50.562Z,3.14
2018-11-27T11:38:50.464Z,3.18
2018-11-27T11:40:50.471Z,3.17
2018-11-27T11:42:50.403Z,3.20
2018-11-27T11:44:50.360Z,3.19
2018-11-27T11:46:50.545Z,3.18
2018-11-27T11:48:50.467Z,3.17
2018-11-27T11:50:50.420Z,3.19
2018-11-27T11:52:50.368Z,3.20
2018-11-27T11:54:50.308Z,3.22
2018-11-27T11:56:50.635Z,3.26
2018-11-27T11:58:50.605Z,3.34
2018-11-27T12:00:50.544Z,3.39
2018-11-27T12:02:50.599Z,3.44
2018-11-27T12:04:49.857Z,3.47
2018-11-27T12:06:50.151Z,3.51
2018-11-27T12:08:50.118Z,3.59
2018-11-27T12:10:50.102Z,3.67
2018-11-27T12:12:50.024Z,3.67
2018-11-27T12:14:50.056Z,3.52
2018-11-27T12:16:50.244Z,3.48
2018-11-27T12:18:50.182Z,3.47
2018-11-27T12:20:50.159Z,3.50
2018-11-27T12:22:50.144Z,3.50
2018-11-27T12:24:50.052Z,3.44
2018-11-27T12:26:50.245Z,3.45
2018-11-27T12:28:50.269Z,3.42
2018-11-27T12:30:50.246Z,3.41
2018-11-27T12:32:50.252Z,3.44
2018-11-27T12:34:50.726Z,3.47
2018-11-27T12:36:49.816Z,3.42
2018-11-27T12:38:49.893Z,3.42
2018-11-27T12:40:49.872Z,3.46
2018-11-27T12:42:49.872Z,3.44
2018-11-27T12:44:49.836Z,3.43
2018-11-27T12:46:50.145Z,3.43
2018-11-27T12:48:50.112Z,3.46
2018-11-27T12:50:50.126Z,3.46
2018-11-27T12:52:50.154Z,3.52
2018-11-27T12:54:50.083Z,3.54
2018-11-27T12:56:50.304Z,3.49
2018-11-27T12:58:50.257Z,3.45
2018-11-27T13:00:50.238Z,3.49
2018-11-27T13:02:50.270Z,3.51
2018-11-27T13:04:50.489Z,3.58
2018-11-27T13:06:50.589Z,3.60
2018-11-27T13:08:50.525Z,3.64
2018-11-27T13:10:50.518Z,3.65
2018-11-27T13:12:50.486Z,3.65
2018-11-27T13:14:50.496Z,3.70
2018-11-27T13:16:49.710Z,3.74
2018-11-27T13:18:49.736Z,3.60
2018-11-27T13:20:49.785Z,3.49
2018-11-27T13:22:50.196Z,3.45
2018-11-27T13:24:50.235Z,3.45
2018-11-27T13:26:50.344Z,3.42
2018-11-27T13:28:50.293Z,3.41
2018-11-27T13:30:50.259Z,3.43
2018-11-27T13:32:50.212Z,3.42
2018-11-27T13:34:52.854Z,3.37
2018-11-27T13:36:50.011Z,3.38
2018-11-27T13:38:50.044Z,3.42
2018-11-27T13:40:50.048Z,3.40
2018-11-27T13:42:50.088Z,3.39
2018-11-27T13:44:50.023Z,3.45
2018-11-27T13:46:50.198Z,3.46
2018-11-27T13:48:50.146Z,3.49
2018-11-27T13:50:50.137Z,3.50
2018-11-27T13:52:50.109Z,3.47
2018-11-27T13:54:50.050Z,3.49
2018-11-27T13:56:50.224Z,3.72
2018-11-27T13:58:50.117Z,3.72
2018-11-27T14:00:50.061Z,3.65
2018-11-27T14:02:50.052Z,3.60
2018-11-27T14:04:50.384Z,3.56
2018-11-27T14:06:50.583Z,3.54
2018-11-27T14:08:50.525Z,3.52
2018-11-27T14:10:50.585Z,3.50
2018-11-27T14:12:49.752Z,3.48
2018-11-27T14:14:50.700Z,3.43
2018-11-27T14:16:50.016Z,3.42
2018-11-27T14:18:50.007Z,3.48
2018-11-27T14:20:49.959Z,3.46
2018-11-27T14:22:49.920Z,3.45
2018-11-27T14:24:49.906Z,3.45
2018-11-27T14:26:50.117Z,3.43
2018-11-27T14:28:50.185Z,3.42
2018-11-27T14:30:50.157Z,3.45
2018-11-27T14:32:50.208Z,3.41
2018-11-27T14:34:50.466Z,3.36
2018-11-27T14:36:49.770Z,3.32
2018-11-27T14:38:49.811Z,3.30
2018-11-27T14:40:49.809Z,3.24
2018-11-27T14:42:49.848Z,3.24
2018-11-27T14:44:49.830Z,3.26
2018-11-27T14:46:50.042Z,3.27
2018-11-27T14:48:50.043Z,3.25
2018-11-27T14:50:50.031Z,3.27
2018-11-27T14:52:50.032Z,3.24
2018-11-27T14:54:49.926Z,3.22
2018-11-27T14:56:50.124Z,3.17
2018-11-27T14:58:51.259Z,3.14
2018-11-27T15:00:50.182Z,3.13
2018-11-27T15:02:50.101Z,3.12
2018-11-27T15:04:50.458Z,3.11
2018-11-27T15:06:49.743Z,3.11
2018-11-27T15:08:49.701Z,3.08
2018-11-27T15:10:49.837Z,3.08
2018-11-27T15:12:49.789Z,3.07
2018-11-27T15:14:49.842Z,3.05
2018-11-27T15:16:49.953Z,3.02
2018-11-27T15:18:49.901Z,3.02
2018-11-27T15:20:49.892Z,3.05
2018-11-27T15:22:49.914Z,3.04
2018-11-27T15:24:49.828Z,3.03
2018-11-27T15:26:50.094Z,3.01
2018-11-27T15:28:50.066Z,2.98
2018-11-27T15:30:50.041Z,2.96
2018-11-27T15:32:50.033Z,2.96
2018-11-27T15:34:50.301Z,2.96
2018-11-27T15:36:50.466Z,2.93
2018-11-27T15:38:50.373Z,2.93
2018-11-27T15:40:50.376Z,2.93
2018-11-27T15:42:50.364Z,2.92
2018-11-27T15:44:50.327Z,2.90
2018-11-27T15:46:50.482Z,2.90
2018-11-27T15:48:50.395Z,2.89
2018-11-27T15:50:50.354Z,2.87
2018-11-27T15:52:50.300Z,2.87
2018-11-27T15:54:50.230Z,2.88
2018-11-27T15:56:50.401Z,2.87
2018-11-27T15:58:50.353Z,2.86
2018-11-27T16:00:50.311Z,2.83
2018-11-27T16:02:50.305Z,2.81
2018-11-27T16:04:50.498Z,2.79
2018-11-27T16:06:49.764Z,2.78
2018-11-27T16:08:49.730Z,2.80
2018-11-27T16:10:49.818Z,2.81
2018-11-27T16:12:49.793Z,2.79
2018-11-27T16:14:49.819Z,2.80
2018-11-27T16:16:49.991Z,2.80
2018-11-27T16:18:49.993Z,2.79
2018-11-27T16:20:49.958Z,2.79
2018-11-27T16:22:49.921Z,2.78
2018-11-27T16:24:49.887Z,2.76
2018-11-27T16:26:50.151Z,2.76
2018-11-27T16:28:50.092Z,2.72
2018-11-27T16:30:50.024Z,2.72
2018-11-27T16:32:50.031Z,2.71
2018-11-27T16:34:50.245Z,2.69
2018-11-27T16:36:51.294Z,2.69
2018-11-27T16:38:50.199Z,2.68
2018-11-27T16:40:50.284Z,2.68
2018-11-27T16:42:50.443Z,2.66
2018-11-27T16:44:50.431Z,2.65
2018-11-27T16:46:49.825Z,2.64
2018-11-27T16:48:49.735Z,2.61
2018-11-27T16:50:49.733Z,2.59
2018-11-27T16:52:49.701Z,2.60
2018-11-27T16:54:49.741Z,2.61
2018-11-27T16:56:49.977Z,2.61
2018-11-27T16:58:49.923Z,2.60
2018-11-27T17:00:49.965Z,2.59
2018-11-27T17:02:50.791Z,2.58
2018-11-27T17:04:50.273Z,2.57
2018-11-27T17:06:50.328Z,2.57
2018-11-27T17:08:50.308Z,2.58
2018-11-27T17:10:50.290Z,2.59
2018-11-27T17:12:50.344Z,2.57
2018-11-27T17:14:50.248Z,2.55
2018-11-27T17:16:50.526Z,2.55
2018-11-27T17:18:50.470Z,2.53
2018-11-27T17:20:50.484Z,2.52
2018-11-27T17:22:50.500Z,2.51
2018-11-27T17:24:50.366Z,2.52
2018-11-27T17:26:49.681Z,2.50
2018-11-27T17:28:49.695Z,2.49
2018-11-27T17:30:50.622Z,2.48
2018-11-27T17:32:49.759Z,2.48
2018-11-27T17:34:50.008Z,2.43
2018-11-27T17:36:50.202Z,2.41
2018-11-27T17:38:50.112Z,2.41
2018-11-27T17:40:50.104Z,2.41
2018-11-27T17:42:50.126Z,2.40
2018-11-27T17:44:50.107Z,2.40
2018-11-27T17:46:50.271Z,2.39
2018-11-27T17:48:50.267Z,2.41
2018-11-27T17:50:50.210Z,2.43
2018-11-27T17:52:50.249Z,2.43
2018-11-27T17:54:50.197Z,2.44
2018-11-27T17:56:50.398Z,2.43
2018-11-27T17:58:50.456Z,2.38
2018-11-27T18:00:50.532Z,2.37
2018-11-27T18:02:50.464Z,2.35
2018-11-27T18:04:49.881Z,2.35
2018-11-27T18:06:50.088Z,2.36
2018-11-27T18:08:50.039Z,2.38
2018-11-27T18:10:50.020Z,2.38
2018-11-27T18:12:50.278Z,2.35
2018-11-27T18:14:50.359Z,2.34
2018-11-27T18:16:50.444Z,2.33
2018-11-27T18:18:50.399Z,2.33
2018-11-27T18:20:50.424Z,2.34
2018-11-27T18:22:50.440Z,2.35
2018-11-27T18:24:50.403Z,2.36
2018-11-27T18:26:50.681Z,2.37
2018-11-27T18:28:50.636Z,2.36
2018-11-27T18:30:50.637Z,2.32
2018-11-27T18:32:50.514Z,2.30
2018-11-27T18:34:49.910Z,2.29
2018-11-27T18:36:50.236Z,2.29
2018-11-27T18:38:49.806Z,2.29
2018-11-27T18:40:50.197Z,2.25
2018-11-27T18:42:50.329Z,2.23
2018-11-27T18:44:50.448Z,2.20
2018-11-27T18:46:50.703Z,2.20
2018-11-27T18:48:49.760Z,2.19
2018-11-27T18:50:49.892Z,2.20
2018-11-27T18:52:50.314Z,2.18
2018-11-27T18:54:49.771Z,2.19
2018-11-27T18:56:50.077Z,2.18
2018-11-27T18:58:50.276Z,2.19
2018-11-27T19:00:50.409Z,2.19
2018-11-27T19:02:50.541Z,2.15
2018-11-27T19:04:50.217Z,2.13
2018-11-27T19:06:49.710Z,2.14
2018-11-27T19:08:49.717Z,2.16
2018-11-27T19:10:49.720Z,2.15
2018-11-27T19:12:50.684Z,2.16
2018-11-27T19:14:49.728Z,2.16
2018-11-27T19:16:49.967Z,2.16
2018-11-27T19:18:49.925Z,2.17
2018-11-27T19:20:49.891Z,2.14
2018-11-27T19:22:49.983Z,2.10
2018-11-27T19:24:50.052Z,2.08
2018-11-27T19:26:50.229Z,2.05
2018-11-27T19:28:50.278Z,2.05
2018-11-27T19:30:50.353Z,2.02
2018-11-27T19:32:50.334Z,2.00
2018-11-27T19:34:50.546Z,1.97
2018-11-27T19:36:49.691Z,1.98
2018-11-27T19:38:49.716Z,1.96
2018-11-27T19:40:49.708Z,1.93
2018-11-27T19:42:49.816Z,1.92
2018-11-27T19:44:49.983Z,1.93
2018-11-27T19:46:50.318Z,1.93
2018-11-27T19:48:54.221Z,1.93
2018-11-27T19:50:50.247Z,1.93
2018-11-27T19:52:50.425Z,1.93
2018-11-27T19:54:50.382Z,1.93
2018-11-27T19:56:50.515Z,1.93
2018-11-27T19:58:50.616Z,1.93
2018-11-27T20:00:50.546Z,1.91
2018-11-27T20:02:50.612Z,1.87
2018-11-27T20:04:49.985Z,1.85
2018-11-27T20:06:50.240Z,1.83
2018-11-27T20:08:50.183Z,1.83
2018-11-27T20:10:50.206Z,1.85
2018-11-27T20:12:50.211Z,1.87
2018-11-27T20:14:50.240Z,1.84
2018-11-27T20:16:50.450Z,1.84
2018-11-27T20:18:50.555Z,1.83
2018-11-27T20:20:50.580Z,1.82
2018-11-27T20:22:50.592Z,1.81
2018-11-27T20:24:50.676Z,1.79
2018-11-27T20:26:49.860Z,1.78
2018-11-27T20:28:49.854Z,1.75
2018-11-27T20:30:49.881Z,1.76
2018-11-27T20:32:49.866Z,1.76
2018-11-27T20:34:50.171Z,1.77
2018-11-27T20:36:50.344Z,1.75
2018-11-27T20:38:50.393Z,1.73
2018-11-27T20:40:50.355Z,1.73
2018-11-27T20:42:50.336Z,1.74
2018-11-27T20:44:50.360Z,1.74
2018-11-27T20:46:50.553Z,1.73
2018-11-27T20:48:50.647Z,1.74
2018-11-27T20:50:50.521Z,1.73
2018-11-27T20:52:50.540Z,1.73
2018-11-27T20:54:50.454Z,1.75
2018-11-27T20:56:49.734Z,1.77
2018-11-27T20:58:49.694Z,1.77
2018-11-27T21:00:49.728Z,1.80
2018-11-27T21:02:49.910Z,1.79
2018-11-27T21:04:50.206Z,1.79
2018-11-27T21:06:50.339Z,1.81
2018-11-27T21:08:50.273Z,1.80
2018-11-27T21:10:50.435Z,1.78
2018-11-27T21:12:50.451Z,1.78
2018-11-27T21:14:50.356Z,1.77
2018-11-27T21:16:50.486Z,1.77
2018-11-27T21:18:50.490Z,1.79
2018-11-27T21:20:50.451Z,1.78
2018-11-27T21:22:50.482Z,1.74
2018-11-27T21:24:50.421Z,1.72
2018-11-27T21:26:50.556Z,1.71
2018-11-27T21:28:50.459Z,1.73
2018-11-27T21:30:50.467Z,1.76
2018-11-27T21:32:50.567Z,1.77
2018-11-27T21:34:49.980Z,1.77
2018-11-27T21:36:50.177Z,1.78
2018-11-27T21:38:50.131Z,1.76
2018-11-27T21:40:50.158Z,1.74
2018-11-27T21:42:50.158Z,1.73
2018-11-27T21:44:51.137Z,1.71
2018-11-27T21:46:50.224Z,1.68
2018-11-27T21:48:50.178Z,1.65
2018-11-27T21:50:50.140Z,1.63
2018-11-27T21:52:50.106Z,1.61
2018-11-27T21:54:50.213Z,1.60
2018-11-27T21:56:50.384Z,1.58
2018-11-27T21:58:50.416Z,1.55
2018-11-27T22:00:50.426Z,1.48
2018-11-27T22:02:50.413Z,1.43
2018-11-27T22:04:49.713Z,1.40
2018-11-27T22:06:49.873Z,1.32
2018-11-27T22:08:49.826Z,1.30
2018-11-27T22:10:49.863Z,1.21
2018-11-27T22:12:49.874Z,1.13
2018-11-27T22:14:50.190Z,1.07
2018-11-27T22:16:50.362Z,1.06
2018-11-27T22:18:50.349Z,1.04
2018-11-27T22:20:50.359Z,1.03
2018-11-27T22:22:50.434Z,1.01
2018-11-27T22:24:50.429Z,1.00
2018-11-27T22:26:49.721Z,1.01
2018-11-27T22:28:49.751Z,1.03
2018-11-27T22:30:49.766Z,1.04
2018-11-27T22:32:49.776Z,1.07
2018-11-27T22:34:50.358Z,1.08
2018-11-27T22:36:50.636Z,1.09
2018-11-27T22:38:50.558Z,1.11
2018-11-27T22:40:50.600Z,1.09
2018-11-27T22:42:50.550Z,1.06
2018-11-27T22:44:49.715Z,1.03
2018-11-27T22:46:49.929Z,1.00
2018-11-27T22:48:49.897Z,0.99
2018-11-27T22:50:49.980Z,1.00
2018-11-27T22:52:50.061Z,0.99
2018-11-27T22:54:50.066Z,0.98
2018-11-27T22:56:50.176Z,1.02
2018-11-27T22:58:50.178Z,1.06
2018-11-27T23:00:50.159Z,1.06
2018-11-27T23:02:50.156Z,1.07
2018-11-27T23:04:49.753Z,1.07
2018-11-27T23:06:49.930Z,1.08
2018-11-27T23:08:49.935Z,1.08
2018-11-27T23:10:49.974Z,1.07
2018-11-27T23:12:49.944Z,1.06
2018-11-27T23:14:49.933Z,1.06
2018-11-27T23:16:50.158Z,1.05
2018-11-27T23:18:50.126Z,1.05
2018-11-27T23:20:50.179Z,1.04
2018-11-27T23:22:50.150Z,1.04
2018-11-27T23:24:50.236Z,1.03
2018-11-27T23:26:50.434Z,1.01
2018-11-27T23:28:50.440Z,0.98
2018-11-27T23:30:50.494Z,0.96
2018-11-27T23:32:50.518Z,0.94
2018-11-27T23:34:49.806Z,0.94
2018-11-27T23:36:49.974Z,0.93
2018-11-27T23:38:49.967Z,0.92
2018-11-27T23:40:49.940Z,0.90
2018-11-27T23:42:49.972Z,0.84
2018-11-27T23:44:49.959Z,0.81
2018-11-27T23:46:50.166Z,0.77
2018-11-27T23:48:50.147Z,0.73
2018-11-27T23:50:50.126Z,0.67
2018-11-27T23:52:50.081Z,0.67
2018-11-27T23:54:50.097Z,0.54
2018-11-27T23:56:50.459Z,0.43
2018-11-27T23:58:50.447Z,0.34
